createdAt,value
2023-05-06T00:04:50.388Z,95.30
2023-05-06T00:09:52.714Z,95.50
2023-05-06T00:14:54.906Z,94.70
2023-05-06T00:19:58.859Z,94.70
2023-05-06T00:25:01.087Z,94.60
2023-05-06T00:30:04.337Z,94.40
2023-05-06T00:35:07.432Z,94.40
2023-05-06T00:40:10.833Z,95.60
2023-05-06T00:45:13.311Z,96.20
2023-05-06T00:50:15.734Z,96.00
2023-05-06T00:55:18.235Z,95.30
2023-05-06T01:00:21.605Z,94.60
2023-05-06T01:05:29.985Z,95.40
2023-05-06T01:10:52.584Z,96.70
2023-05-06T01:15:59.695Z,95.90
2023-05-06T01:21:05.339Z,95.70
2023-05-06T01:26:07.501Z,95.30
2023-05-06T01:31:15.287Z,94.90
2023-05-06T01:37:10.814Z,95.00
2023-05-06T01:42:15.568Z,95.20
2023-05-06T01:47:19.690Z,96.00
2023-05-06T01:52:22.541Z,95.70
2023-05-06T01:57:25.706Z,94.60
2023-05-06T02:02:27.936Z,94.40
2023-05-06T02:07:30.394Z,93.90
2023-05-06T02:12:32.888Z,94.10
2023-05-06T02:17:37.517Z,94.70
2023-05-06T02:22:40.003Z,94.50
2023-05-06T02:27:42.516Z,94.40
2023-05-06T02:32:44.953Z,94.70
2023-05-06T02:37:47.085Z,95.50
2023-05-06T02:42:50.545Z,96.30
2023-05-06T02:47:52.758Z,98.10
2023-05-06T02:52:54.913Z,98.80
2023-05-06T02:57:57.076Z,99.20
2023-05-06T03:02:59.268Z,99.20
2023-05-06T03:08:02.587Z,99.10
2023-05-06T03:13:06.268Z,98.90
2023-05-06T03:18:08.565Z,98.30
2023-05-06T03:23:12.266Z,98.60
2023-05-06T03:28:15.048Z,98.80
2023-05-06T03:33:19.984Z,99.10
2023-05-06T03:38:22.617Z,99.60
2023-05-06T03:43:31.871Z,99.40
2023-05-06T03:48:37.485Z,99.20
2023-05-06T03:53:44.049Z,98.40
2023-05-06T03:58:46.316Z,97.20
2023-05-06T04:03:49.516Z,97.00
2023-05-06T04:08:51.815Z,98.40
2023-05-06T04:13:55.466Z,99.30
2023-05-06T04:18:58.860Z,99.10
2023-05-06T04:24:01.458Z,97.70
2023-05-06T04:29:09.965Z,97.50
2023-05-06T04:34:20.404Z,96.90
2023-05-06T04:39:23.017Z,95.50
2023-05-06T04:44:27.311Z,96.30
2023-05-06T04:49:30.125Z,95.70
2023-05-06T04:54:32.502Z,94.90
2023-05-06T04:59:34.901Z,94.70
2023-05-06T05:04:38.249Z,95.60
2023-05-06T05:09:40.941Z,95.40
2023-05-06T05:14:43.594Z,95.20
2023-05-06T05:19:47.707Z,95.20
2023-05-06T05:24:51.785Z,95.50
2023-05-06T05:29:54.283Z,96.30
2023-05-06T05:34:57.414Z,96.80
2023-05-06T05:40:00.427Z,95.50
2023-05-06T05:45:02.815Z,94.60
2023-05-06T05:50:05.746Z,94.40
2023-05-06T05:55:09.044Z,93.90
2023-05-06T06:00:14.256Z,93.30
2023-05-06T06:05:19.161Z,93.60
2023-05-06T06:10:21.376Z,92.10
2023-05-06T06:15:24.615Z,91.90
2023-05-06T06:20:28.856Z,91.30
2023-05-06T06:25:31.189Z,91.20
2023-05-06T06:30:33.604Z,91.30
2023-05-06T06:35:36.121Z,90.70
2023-05-06T06:40:41.045Z,92.10
2023-05-06T06:45:48.314Z,90.90
2023-05-06T06:50:50.744Z,89.40
2023-05-06T06:55:53.160Z,90.30
2023-05-06T07:00:55.326Z,87.00
2023-05-06T07:05:57.431Z,88.90
2023-05-06T07:11:01.307Z,87.10
2023-05-06T07:16:03.914Z,88.00
2023-05-06T07:21:06.202Z,88.40
2023-05-06T07:26:08.295Z,87.10
2023-05-06T07:31:10.805Z,85.70
2023-05-06T07:36:13.166Z,83.50
2023-05-06T07:41:15.482Z,81.80
2023-05-06T07:46:17.874Z,81.70
2023-05-06T07:51:20.117Z,77.90
2023-05-06T07:56:22.459Z,76.80
2023-05-06T08:01:25.614Z,77.40
2023-05-06T08:06:27.819Z,75.20
2023-05-06T08:11:29.952Z,75.20
2023-05-06T08:16:32.310Z,72.40
2023-05-06T08:21:34.470Z,76.20
2023-05-06T08:26:38.537Z,74.70
2023-05-06T08:31:40.918Z,72.70
2023-05-06T08:36:43.300Z,67.40
2023-05-06T08:41:52.477Z,70.40
2023-05-06T08:46:54.952Z,73.70
2023-05-06T08:51:58.292Z,69.20
2023-05-06T08:57:06.244Z,66.50
2023-05-06T09:02:08.784Z,64.00
2023-05-06T09:07:11.280Z,65.90
2023-05-06T09:12:15.162Z,67.20
2023-05-06T09:17:28.698Z,70.10
2023-05-06T09:22:31.381Z,65.90
2023-05-06T09:27:36.977Z,71.40
2023-05-06T09:32:40.702Z,73.30
2023-05-06T09:37:43.191Z,72.80
2023-05-06T09:42:45.916Z,68.50
2023-05-06T09:47:49.893Z,64.10
2023-05-06T09:52:52.335Z,59.50
2023-05-06T09:57:56.440Z,60.20
2023-05-06T10:03:00.928Z,60.30
2023-05-06T10:08:04.633Z,61.80
2023-05-06T10:13:07.095Z,62.10
2023-05-06T10:18:09.893Z,59.00
2023-05-06T10:23:24.098Z,56.60
2023-05-06T10:28:30.914Z,57.20
2023-05-06T10:33:34.739Z,54.90
2023-05-06T10:38:44.560Z,56.10
2023-05-06T10:43:47.874Z,56.20
2023-05-06T10:49:04.913Z,53.60
2023-05-06T10:54:07.910Z,51.20
2023-05-06T10:59:12.545Z,54.30
2023-05-06T11:04:18.781Z,51.90
2023-05-06T11:09:27.862Z,52.10
2023-05-06T11:14:35.920Z,55.20
2023-05-06T11:19:40.240Z,54.70
2023-05-06T11:24:44.328Z,49.90
2023-05-06T11:29:46.895Z,50.80
2023-05-06T11:34:49.264Z,51.10
2023-05-06T11:39:51.394Z,52.20
2023-05-06T11:44:55.937Z,52.90
2023-05-06T11:49:59.190Z,54.70
2023-05-06T11:55:01.328Z,52.50
2023-05-06T12:00:05.231Z,53.10
2023-05-06T12:05:14.679Z,53.70
2023-05-06T12:10:17.715Z,51.50
2023-05-06T12:15:20.112Z,52.20
2023-05-06T12:20:23.405Z,51.40
2023-05-06T12:25:25.747Z,53.50
2023-05-06T12:30:34.669Z,56.20
2023-05-06T12:35:37.617Z,56.70
2023-05-06T12:40:44.672Z,58.10
2023-05-06T12:46:09.469Z,57.30
2023-05-06T12:51:19.589Z,57.70
2023-05-06T12:56:22.687Z,59.40
2023-05-06T13:01:24.906Z,58.50
2023-05-06T13:06:27.009Z,56.10
2023-05-06T13:11:29.181Z,50.80
2023-05-06T13:16:32.575Z,56.70
2023-05-06T13:21:36.230Z,53.40
2023-05-06T13:26:38.952Z,52.90
2023-05-06T13:31:41.251Z,52.80
2023-05-06T13:36:44.199Z,55.80
2023-05-06T13:41:50.359Z,56.00
2023-05-06T13:46:52.802Z,54.50
2023-05-06T13:51:54.996Z,52.00
2023-05-06T13:56:58.487Z,53.40
2023-05-06T14:02:01.305Z,52.30
2023-05-06T14:07:03.592Z,55.60
2023-05-06T14:12:06.169Z,55.20
2023-05-06T14:17:08.315Z,53.30
2023-05-06T14:22:10.423Z,54.30
2023-05-06T14:27:12.652Z,53.70
2023-05-06T14:32:15.527Z,54.00
2023-05-06T14:37:18.014Z,55.30
2023-05-06T14:42:20.158Z,50.90
2023-05-06T14:47:22.607Z,53.10
2023-05-06T14:52:24.977Z,53.80
2023-05-06T14:57:27.154Z,55.00
2023-05-06T15:02:29.382Z,55.90
2023-05-06T15:07:31.626Z,55.50
2023-05-06T15:12:36.512Z,50.00
2023-05-06T15:17:39.607Z,54.70
2023-05-06T15:22:41.860Z,51.30
2023-05-06T15:27:44.256Z,55.20
2023-05-06T15:32:49.179Z,52.30
2023-05-06T15:37:58.863Z,51.90
2023-05-06T15:43:01.186Z,55.70
2023-05-06T15:48:03.385Z,56.80
2023-05-06T15:53:05.611Z,55.80
2023-05-06T15:58:07.707Z,54.70
2023-05-06T16:03:12.024Z,55.80
2023-05-06T16:08:15.193Z,57.00
2023-05-06T16:13:17.842Z,54.60
2023-05-06T16:18:20.056Z,56.70
2023-05-06T16:23:22.246Z,56.90
2023-05-06T16:28:24.802Z,56.20
2023-05-06T16:33:27.024Z,57.30
2023-05-06T16:38:29.161Z,57.50
2023-05-06T16:43:31.558Z,57.30
2023-05-06T16:48:34.407Z,56.20
2023-05-06T16:53:36.763Z,56.40
2023-05-06T16:58:39.235Z,57.70
2023-05-06T17:03:43.026Z,55.80
2023-05-06T17:08:45.539Z,53.30
2023-05-06T17:13:47.899Z,59.00
2023-05-06T17:18:50.085Z,58.50
2023-05-06T17:23:54.616Z,57.20
2023-05-06T17:28:56.763Z,59.70
2023-05-06T17:33:58.965Z,60.30
2023-05-06T17:39:05.871Z,58.50
2023-05-06T17:44:08.266Z,59.70
2023-05-06T17:49:10.634Z,59.20
2023-05-06T17:54:13.629Z,58.70
2023-05-06T17:59:17.761Z,59.40
2023-05-06T18:04:19.861Z,60.50
2023-05-06T18:09:22.070Z,61.60
2023-05-06T18:14:24.311Z,60.60
2023-05-06T18:19:26.457Z,58.90
2023-05-06T18:24:28.554Z,55.50
2023-05-06T18:29:32.777Z,55.60
2023-05-06T18:34:35.138Z,56.50
2023-05-06T18:39:45.655Z,54.40
2023-05-06T18:44:50.427Z,54.70
2023-05-06T18:49:53.585Z,55.30
2023-05-06T18:54:55.734Z,58.80
2023-05-06T18:59:57.930Z,58.80
2023-05-06T19:05:00.164Z,57.90
2023-05-06T19:10:02.435Z,57.20
2023-05-06T19:15:05.171Z,58.50
2023-05-06T19:20:08.838Z,60.50
2023-05-06T19:25:11.639Z,59.10
2023-05-06T19:30:14.401Z,58.90
2023-05-06T19:35:17.806Z,59.70
2023-05-06T19:40:20.629Z,60.50
2023-05-06T19:45:22.776Z,60.10
2023-05-06T19:50:28.572Z,61.00
2023-05-06T19:55:31.473Z,59.00
2023-05-06T20:00:33.884Z,59.10
2023-05-06T20:05:36.314Z,59.30
2023-05-06T20:10:39.002Z,59.00
2023-05-06T20:15:41.706Z,60.20
2023-05-06T20:20:44.322Z,60.00
2023-05-06T20:25:46.606Z,60.10
2023-05-06T20:30:48.992Z,61.90
2023-05-06T20:35:52.447Z,61.70
2023-05-06T20:40:54.614Z,61.60
2023-05-06T20:45:56.824Z,62.10
2023-05-06T20:50:59.064Z,62.60
2023-05-06T20:56:01.592Z,62.80
2023-05-06T21:01:04.036Z,62.60
2023-05-06T21:06:06.360Z,63.30
2023-05-06T21:11:08.441Z,63.30
2023-05-06T21:16:10.575Z,63.60
2023-05-06T21:21:12.688Z,62.90
2023-05-06T21:26:16.016Z,63.40
2023-05-06T21:31:24.189Z,63.90
2023-05-06T21:36:27.300Z,64.40
2023-05-06T21:41:29.570Z,64.20
2023-05-06T21:46:33.043Z,64.40
2023-05-06T21:51:36.645Z,65.60
2023-05-06T21:56:38.867Z,65.00
2023-05-06T22:01:41.042Z,65.50
2023-05-06T22:06:43.223Z,65.00
2023-05-06T22:11:45.732Z,65.30
2023-05-06T22:16:48.247Z,66.50
2023-05-06T22:21:50.409Z,65.80
2023-05-06T22:26:52.563Z,66.90
2023-05-06T22:31:54.767Z,65.90
2023-05-06T22:36:59.162Z,66.10
2023-05-06T22:42:02.988Z,65.00
2023-05-06T22:47:05.171Z,65.00
2023-05-06T22:52:07.382Z,66.40
2023-05-06T22:57:09.780Z,66.90
2023-05-06T23:02:12.218Z,66.70
2023-05-06T23:07:14.847Z,66.20
2023-05-06T23:12:17.221Z,67.40
2023-05-06T23:17:19.435Z,66.60
2023-05-06T23:22:21.552Z,67.60
2023-05-06T23:27:23.845Z,67.80
2023-05-06T23:32:26.382Z,68.60
2023-05-06T23:37:28.592Z,68.30
2023-05-06T23:42:30.851Z,66.90
2023-05-06T23:47:33.218Z,66.90
2023-05-06T23:52:38.366Z,69.20
2023-05-06T23:57:40.563Z,70.00
